PPNOB SBRJ-SBBH
Flight info
| Callsign | PPNOB |
|---|---|
| Flight time | 0h 40m |
| Altitude | 220 |
| Route | ISRIN DAKDA BHZ |
| Aircraft | B737/M-SDE2E3FGRY/S |
Departure
| Time | 2026-05-07 23:20 |
|---|---|
| Airport | Santos Dumont Airport (SBRJ) |
Arrival
| Time | 2026-05-08 00:00 |
|---|---|
| Airport | Pampulha - Carlos Drummond de Andrade Airport (SBBH) |
| Time | Latitude | Longitude | Altitude | Speed | Heading |
|---|---|---|---|---|---|
| 2026-05-07 23:10 | -22.90918 | -43.16596 | 29 ft | 0 kts | 266° |
| 2026-05-07 23:14 | -22.90916 | -43.16559 | 29 ft | 4 kts | 266° |
| 2026-05-07 23:15 | -22.90914 | -43.16538 | 29 ft | 10 kts | 269° |
| 2026-05-07 23:15 | -22.90898 | -43.16563 | 28 ft | 0 kts | 347° |
| 2026-05-07 23:15 | -22.90897 | -43.16563 | 28 ft | 0 kts | 351° |
| 2026-05-07 23:17 | -22.90785 | -43.16550 | 29 ft | 25 kts | 9° |
| 2026-05-07 23:17 | -22.90611 | -43.16552 | 29 ft | 24 kts | 358° |
| 2026-05-07 23:18 | -22.90504 | -43.16538 | 29 ft | 10 kts | 54° |
| 2026-05-07 23:18 | -22.90497 | -43.16504 | 29 ft | 0 kts | 84° |
| 2026-05-07 23:19 | -22.90496 | -43.16491 | 29 ft | 9 kts | 85° |
| 2026-05-07 23:19 | -22.90490 | -43.16409 | 31 ft | 11 kts | 85° |
| 2026-05-07 23:20 | -22.90505 | -43.16332 | 28 ft | 11 kts | 134° |
| 2026-05-07 23:20 | -22.90712 | -43.16303 | 30 ft | 80 kts | 177° |
| 2026-05-07 23:20 | -22.91646 | -43.16223 | 185 ft | 178 kts | 173° |
| 2026-05-07 23:20 | -22.92975 | -43.15869 | 871 ft | 222 kts | 147° |
| 2026-05-07 23:21 | -22.94200 | -43.14685 | 1811 ft | 242 kts | 132° |
| 2026-05-07 23:21 | -22.95410 | -43.13349 | 3041 ft | 260 kts | 134° |
| 2026-05-07 23:21 | -22.96759 | -43.11949 | 4398 ft | 270 kts | 136° |
| 2026-05-07 23:21 | -22.98161 | -43.10575 | 6051 ft | 274 kts | 137° |
| 2026-05-07 23:22 | -22.99658 | -43.09144 | 6683 ft | 299 kts | 137° |
| 2026-05-07 23:22 | -23.01153 | -43.07637 | 6984 ft | 289 kts | 127° |
| 2026-05-07 23:22 | -23.02033 | -43.05721 | 7311 ft | 282 kts | 101° |
| 2026-05-07 23:22 | -23.02110 | -43.03612 | 7673 ft | 282 kts | 79° |
| 2026-05-07 23:23 | -23.01535 | -43.01587 | 8034 ft | 281 kts | 66° |
| 2026-05-07 23:23 | -23.00777 | -42.99627 | 8372 ft | 283 kts | 65° |
| 2026-05-07 23:23 | -22.99999 | -42.97662 | 8720 ft | 284 kts | 65° |
| 2026-05-07 23:23 | -22.99230 | -42.95685 | 9074 ft | 285 kts | 66° |
| 2026-05-07 23:24 | -22.98373 | -42.93781 | 9406 ft | 286 kts | 51° |
| 2026-05-07 23:24 | -22.96761 | -42.92533 | 10323 ft | 293 kts | 21° |
| 2026-05-07 23:24 | -22.94715 | -42.92097 | 11489 ft | 306 kts | 1° |
| 2026-05-07 23:24 | -22.92557 | -42.92212 | 12726 ft | 316 kts | 356° |
| 2026-05-07 23:25 | -22.90350 | -42.92446 | 13944 ft | 325 kts | 354° |
| 2026-05-07 23:25 | -22.88017 | -42.92724 | 14652 ft | 347 kts | 354° |
| 2026-05-07 23:25 | -22.85550 | -42.93019 | 15383 ft | 365 kts | 354° |
| 2026-05-07 23:25 | -22.82974 | -42.93320 | 16116 ft | 380 kts | 354° |
| 2026-05-07 23:26 | -22.80297 | -42.93623 | 16870 ft | 394 kts | 354° |
| 2026-05-07 23:26 | -22.77523 | -42.93927 | 17638 ft | 406 kts | 354° |
| 2026-05-07 23:26 | -22.74679 | -42.94232 | 18404 ft | 415 kts | 354° |
| 2026-05-07 23:26 | -22.71763 | -42.94541 | 19001 ft | 425 kts | 354° |
| 2026-05-07 23:27 | -22.65805 | -42.95166 | 19936 ft | 435 kts | 354° |
| 2026-05-07 23:27 | -22.62783 | -42.95481 | 20421 ft | 438 kts | 354° |
| 2026-05-07 23:27 | -22.59732 | -42.95797 | 20912 ft | 442 kts | 354° |
| 2026-05-07 23:28 | -22.56662 | -42.96116 | 21406 ft | 445 kts | 354° |
| 2026-05-07 23:28 | -22.53567 | -42.96437 | 21906 ft | 448 kts | 354° |
| 2026-05-07 23:28 | -22.50477 | -42.96758 | 22050 ft | 456 kts | 354° |
| 2026-05-07 23:28 | -22.47255 | -42.97093 | 22052 ft | 464 kts | 354° |
| 2026-05-07 23:29 | -22.44011 | -42.97430 | 22071 ft | 469 kts | 354° |
| 2026-05-07 23:29 | -22.40787 | -42.97765 | 22064 ft | 471 kts | 354° |
| 2026-05-07 23:29 | -22.37546 | -42.98102 | 22070 ft | 470 kts | 354° |
| 2026-05-07 23:29 | -22.34270 | -42.98441 | 22078 ft | 471 kts | 354° |
| 2026-05-07 23:30 | -22.31002 | -42.98779 | 22083 ft | 471 kts | 354° |
| 2026-05-07 23:30 | -22.27734 | -42.99117 | 22075 ft | 471 kts | 354° |
| 2026-05-07 23:30 | -22.24463 | -42.99455 | 22083 ft | 471 kts | 354° |
| 2026-05-07 23:30 | -22.21207 | -42.99793 | 22086 ft | 471 kts | 354° |
| 2026-05-07 23:31 | -22.17984 | -43.00126 | 22089 ft | 470 kts | 354° |
| 2026-05-07 23:31 | -22.14691 | -43.00466 | 22088 ft | 470 kts | 354° |
| 2026-05-07 23:31 | -22.11480 | -43.00798 | 22078 ft | 469 kts | 354° |
| 2026-05-07 23:31 | -22.08224 | -43.01135 | 22088 ft | 469 kts | 354° |
| 2026-05-07 23:32 | -22.04985 | -43.01469 | 22090 ft | 469 kts | 354° |
| 2026-05-07 23:32 | -22.01730 | -43.01805 | 22086 ft | 469 kts | 354° |
| 2026-05-07 23:32 | -21.98477 | -43.02141 | 22085 ft | 469 kts | 354° |
| 2026-05-07 23:32 | -21.95230 | -43.02476 | 22083 ft | 469 kts | 354° |
| 2026-05-07 23:33 | -21.91974 | -43.02812 | 22082 ft | 469 kts | 354° |
| 2026-05-07 23:33 | -21.88723 | -43.03147 | 22081 ft | 470 kts | 354° |
| 2026-05-07 23:33 | -21.85454 | -43.03483 | 22082 ft | 470 kts | 354° |
| 2026-05-07 23:33 | -21.82198 | -43.03818 | 22080 ft | 470 kts | 354° |
| 2026-05-07 23:34 | -21.78938 | -43.04154 | 22082 ft | 470 kts | 354° |
| 2026-05-07 23:34 | -21.75718 | -43.04485 | 22076 ft | 470 kts | 354° |
| 2026-05-07 23:34 | -21.72472 | -43.04819 | 22079 ft | 470 kts | 354° |
| 2026-05-07 23:34 | -21.69195 | -43.05155 | 22081 ft | 470 kts | 354° |
| 2026-05-07 23:35 | -21.65936 | -43.05490 | 22084 ft | 471 kts | 354° |
| 2026-05-07 23:35 | -21.62683 | -43.05824 | 22079 ft | 471 kts | 354° |
| 2026-05-07 23:35 | -21.59411 | -43.06160 | 22077 ft | 471 kts | 354° |
| 2026-05-07 23:35 | -21.56152 | -43.06494 | 22079 ft | 471 kts | 354° |
| 2026-05-07 23:36 | -21.52898 | -43.06828 | 22081 ft | 471 kts | 354° |
| 2026-05-07 23:36 | -21.49633 | -43.07162 | 22076 ft | 471 kts | 354° |
| 2026-05-07 23:36 | -21.46372 | -43.07496 | 22076 ft | 471 kts | 354° |
| 2026-05-07 23:36 | -21.43109 | -43.07831 | 22075 ft | 471 kts | 354° |
| 2026-05-07 23:37 | -21.39835 | -43.08165 | 22074 ft | 471 kts | 354° |
| 2026-05-07 23:37 | -21.36567 | -43.08500 | 22075 ft | 471 kts | 354° |
| 2026-05-07 23:37 | -21.33308 | -43.08833 | 22074 ft | 471 kts | 354° |
| 2026-05-07 23:37 | -21.30041 | -43.09167 | 22081 ft | 471 kts | 354° |
| 2026-05-07 23:38 | -21.26825 | -43.09809 | 22066 ft | 471 kts | 340° |
| 2026-05-07 23:38 | -21.23813 | -43.11193 | 22086 ft | 470 kts | 335° |
| 2026-05-07 23:38 | -21.20878 | -43.12630 | 22083 ft | 471 kts | 335° |
| 2026-05-07 23:38 | -21.17890 | -43.14081 | 22079 ft | 471 kts | 335° |
| 2026-05-07 23:39 | -21.14895 | -43.15513 | 22078 ft | 472 kts | 335° |
| 2026-05-07 23:39 | -21.11888 | -43.16929 | 22082 ft | 471 kts | 336° |
| 2026-05-07 23:39 | -21.08882 | -43.18332 | 22085 ft | 471 kts | 336° |
| 2026-05-07 23:39 | -21.05870 | -43.19731 | 22084 ft | 471 kts | 336° |
| 2026-05-07 23:40 | -21.02855 | -43.21129 | 22089 ft | 471 kts | 336° |
| 2026-05-07 23:40 | -20.99851 | -43.22523 | 22093 ft | 471 kts | 336° |
| 2026-05-07 23:40 | -20.96834 | -43.23923 | 22091 ft | 472 kts | 336° |
| 2026-05-07 23:40 | -20.93829 | -43.25318 | 22090 ft | 472 kts | 336° |
| 2026-05-07 23:41 | -20.90818 | -43.26716 | 22091 ft | 472 kts | 336° |
| 2026-05-07 23:41 | -20.87805 | -43.28114 | 22092 ft | 472 kts | 336° |
| 2026-05-07 23:41 | -20.84795 | -43.29509 | 22098 ft | 471 kts | 336° |
| 2026-05-07 23:41 | -20.81785 | -43.30903 | 22097 ft | 472 kts | 336° |
| 2026-05-07 23:42 | -20.78779 | -43.32295 | 22097 ft | 472 kts | 336° |
| 2026-05-07 23:42 | -20.75763 | -43.33691 | 22095 ft | 472 kts | 336° |
| 2026-05-07 23:42 | -20.72755 | -43.35083 | 22097 ft | 472 kts | 336° |
| 2026-05-07 23:42 | -20.69734 | -43.36481 | 22100 ft | 472 kts | 336° |
| 2026-05-07 23:43 | -20.66738 | -43.37866 | 22089 ft | 460 kts | 336° |
| 2026-05-07 23:43 | -20.63881 | -43.39186 | 21961 ft | 436 kts | 336° |
| 2026-05-07 23:43 | -20.61186 | -43.40431 | 21713 ft | 419 kts | 336° |
| 2026-05-07 23:43 | -20.58563 | -43.41643 | 21473 ft | 403 kts | 336° |
| 2026-05-07 23:44 | -20.56032 | -43.42812 | 21232 ft | 390 kts | 336° |
| 2026-05-07 23:44 | -20.53555 | -43.43957 | 20970 ft | 387 kts | 336° |
| 2026-05-07 23:44 | -20.51067 | -43.45105 | 20484 ft | 389 kts | 336° |
| 2026-05-07 23:44 | -20.48587 | -43.46249 | 20020 ft | 388 kts | 336° |
| 2026-05-07 23:45 | -20.46108 | -43.47391 | 19561 ft | 387 kts | 337° |
| 2026-05-07 23:45 | -20.43652 | -43.48522 | 19000 ft | 386 kts | 337° |
| 2026-05-07 23:45 | -20.41174 | -43.49662 | 18455 ft | 385 kts | 337° |
| 2026-05-07 23:45 | -20.38727 | -43.50788 | 17821 ft | 381 kts | 337° |
| 2026-05-07 23:46 | -20.36297 | -43.51906 | 17188 ft | 378 kts | 337° |
| 2026-05-07 23:46 | -20.33899 | -43.53009 | 16580 ft | 374 kts | 337° |
| 2026-05-07 23:46 | -20.31515 | -43.54106 | 15973 ft | 371 kts | 338° |
| 2026-05-07 23:46 | -20.29160 | -43.55189 | 15383 ft | 367 kts | 337° |
| 2026-05-07 23:47 | -20.26828 | -43.56287 | 14797 ft | 364 kts | 334° |
| 2026-05-07 23:47 | -20.24761 | -43.57764 | 14222 ft | 363 kts | 319° |
| 2026-05-07 23:47 | -20.23039 | -43.59752 | 13631 ft | 361 kts | 307° |
| 2026-05-07 23:47 | -20.21672 | -43.61943 | 13020 ft | 358 kts | 304° |
| 2026-05-07 23:48 | -20.20332 | -43.64157 | 12538 ft | 351 kts | 304° |
| 2026-05-07 23:48 | -20.19013 | -43.66339 | 12388 ft | 350 kts | 304° |
| 2026-05-07 23:48 | -20.17690 | -43.68518 | 12231 ft | 350 kts | 304° |
| 2026-05-07 23:48 | -20.16362 | -43.70692 | 12094 ft | 349 kts | 304° |
| 2026-05-07 23:49 | -20.15040 | -43.72851 | 11951 ft | 349 kts | 304° |
| 2026-05-07 23:49 | -20.13713 | -43.75013 | 11787 ft | 348 kts | 305° |
| 2026-05-07 23:49 | -20.12401 | -43.77146 | 11659 ft | 348 kts | 305° |
| 2026-05-07 23:49 | -20.11058 | -43.79327 | 11520 ft | 348 kts | 305° |
| 2026-05-07 23:50 | -20.09729 | -43.81481 | 11378 ft | 348 kts | 305° |
| 2026-05-07 23:50 | -20.08422 | -43.83602 | 11243 ft | 348 kts | 305° |
| 2026-05-07 23:50 | -20.07096 | -43.85749 | 11105 ft | 348 kts | 305° |
| 2026-05-07 23:50 | -20.05767 | -43.87901 | 10966 ft | 348 kts | 305° |
| 2026-05-07 23:51 | -20.04438 | -43.90055 | 10831 ft | 348 kts | 305° |
| 2026-05-07 23:51 | -20.03109 | -43.92207 | 10686 ft | 346 kts | 305° |
| 2026-05-07 23:51 | -20.01817 | -43.94301 | 10538 ft | 330 kts | 305° |
| 2026-05-07 23:51 | -20.00597 | -43.96282 | 10411 ft | 315 kts | 305° |
| 2026-05-07 23:52 | -19.99414 | -43.98195 | 10298 ft | 302 kts | 305° |
| 2026-05-07 23:52 | -19.98280 | -44.00028 | 10172 ft | 291 kts | 306° |
| 2026-05-07 23:52 | -19.97188 | -44.01793 | 10027 ft | 282 kts | 306° |
| 2026-05-07 23:52 | -19.96131 | -44.03500 | 9817 ft | 269 kts | 306° |
| 2026-05-07 23:53 | -19.95127 | -44.05124 | 9508 ft | 259 kts | 306° |
| 2026-05-07 23:53 | -19.94145 | -44.06708 | 9113 ft | 253 kts | 306° |
| 2026-05-07 23:53 | -19.93187 | -44.08255 | 8736 ft | 248 kts | 306° |
| 2026-05-07 23:53 | -19.92243 | -44.09778 | 8358 ft | 244 kts | 306° |
| 2026-05-07 23:54 | -19.91314 | -44.11275 | 7995 ft | 241 kts | 306° |
| 2026-05-07 23:54 | -19.90397 | -44.12753 | 7660 ft | 243 kts | 307° |
| 2026-05-07 23:54 | -19.89453 | -44.14275 | 7446 ft | 245 kts | 307° |
| 2026-05-07 23:54 | -19.88514 | -44.15787 | 7201 ft | 244 kts | 307° |
| 2026-05-07 23:55 | -19.87498 | -44.17184 | 6954 ft | 241 kts | 323° |
| 2026-05-07 23:55 | -19.86012 | -44.17896 | 6716 ft | 235 kts | 354° |
| 2026-05-07 23:55 | -19.84421 | -44.17709 | 6538 ft | 229 kts | 20° |
| 2026-05-07 23:55 | -19.83057 | -44.16892 | 6382 ft | 224 kts | 37° |
| 2026-05-07 23:56 | -19.81852 | -44.15875 | 6203 ft | 217 kts | 39° |
| 2026-05-07 23:56 | -19.80708 | -44.14874 | 5985 ft | 206 kts | 39° |
| 2026-05-07 23:56 | -19.79656 | -44.13902 | 5979 ft | 198 kts | 49° |
| 2026-05-07 23:56 | -19.79103 | -44.12586 | 5871 ft | 199 kts | 79° |
| 2026-05-07 23:57 | -19.79265 | -44.11123 | 5714 ft | 203 kts | 103° |
| 2026-05-07 23:57 | -19.79753 | -44.09710 | 5510 ft | 204 kts | 107° |
| 2026-05-07 23:57 | -19.80265 | -44.08330 | 5302 ft | 197 kts | 107° |
| 2026-05-07 23:57 | -19.80748 | -44.07014 | 5102 ft | 186 kts | 107° |
| 2026-05-07 23:58 | -19.81199 | -44.05782 | 4934 ft | 171 kts | 107° |
| 2026-05-07 23:58 | -19.81616 | -44.04638 | 4611 ft | 161 kts | 107° |
| 2026-05-07 23:58 | -19.82005 | -44.03567 | 4418 ft | 153 kts | 107° |
| 2026-05-07 23:58 | -19.82375 | -44.02534 | 4215 ft | 150 kts | 107° |
| 2026-05-07 23:59 | -19.82745 | -44.01509 | 4002 ft | 144 kts | 107° |
| 2026-05-07 23:59 | -19.83091 | -44.00549 | 3832 ft | 139 kts | 108° |
| 2026-05-07 23:59 | -19.83418 | -43.99579 | 3596 ft | 140 kts | 108° |
| 2026-05-07 23:59 | -19.83746 | -43.98595 | 3325 ft | 142 kts | 110° |
| 2026-05-08 00:00 | -19.84106 | -43.97618 | 3042 ft | 141 kts | 112° |
| 2026-05-08 00:00 | -19.84473 | -43.96673 | 2775 ft | 135 kts | 112° |
| 2026-05-08 00:00 | -19.84801 | -43.95775 | 2600 ft | 124 kts | 110° |
| 2026-05-08 00:00 | -19.85059 | -43.95071 | 2590 ft | 48 kts | 111° |
| 2026-05-08 00:01 | -19.85128 | -43.94879 | 2594 ft | 26 kts | 111° |
| 2026-05-08 00:01 | -19.85128 | -43.94736 | 2594 ft | 16 kts | 40° |
| 2026-05-08 00:01 | -19.85025 | -43.94701 | 2584 ft | 15 kts | 352° |
| 2026-05-08 00:01 | -19.84963 | -43.94786 | 2591 ft | 15 kts | 289° |
| 2026-05-08 00:02 | -19.84956 | -43.94808 | 2587 ft | 0 kts | 289° |